sensor_id;sensor_type;location;lat;lon;timestamp;temperature;humidity
16578;DHT22;8401;52.528;13.340;2024-01-10T00:02:00;-4.90;99.90
16578;DHT22;8401;52.528;13.340;2024-01-10T00:04:26;-4.90;99.90
16578;DHT22;8401;52.528;13.340;2024-01-10T00:06:51;-4.80;99.90
16578;DHT22;8401;52.528;13.340;2024-01-10T00:09:17;-4.90;99.90
16578;DHT22;8401;52.528;13.340;2024-01-10T00:11:43;-4.90;99.90
16578;DHT22;8401;52.528;13.340;2024-01-10T00:14:08;-4.70;99.90
16578;DHT22;8401;52.528;13.340;2024-01-10T00:16:35;-4.80;99.90
16578;DHT22;8401;52.528;13.340;2024-01-10T00:19:03;-5.00;99.90
16578;DHT22;8401;52.528;13.340;2024-01-10T00:21:29;-5.00;99.90
16578;DHT22;8401;52.528;13.340;2024-01-10T00:23:54;-5.10;99.90
16578;DHT22;8401;52.528;13.340;2024-01-10T00:26:20;-5.10;99.90
16578;DHT22;8401;52.528;13.340;2024-01-10T00:28:46;-5.20;99.90
16578;DHT22;8401;52.528;13.340;2024-01-10T00:31:12;-5.00;99.90
16578;DHT22;8401;52.528;13.340;2024-01-10T00:33:39;-4.90;99.90
16578;DHT22;8401;52.528;13.340;2024-01-10T00:36:05;-4.80;99.90
16578;DHT22;8401;52.528;13.340;2024-01-10T00:38:31;-4.90;99.90
16578;DHT22;8401;52.528;13.340;2024-01-10T00:40:57;-5.00;99.90
16578;DHT22;8401;52.528;13.340;2024-01-10T00:43:22;-4.80;99.90
16578;DHT22;8401;52.528;13.340;2024-01-10T00:45:48;-4.90;99.90
16578;DHT22;8401;52.528;13.340;2024-01-10T00:48:14;-4.90;99.90
16578;DHT22;8401;52.528;13.340;2024-01-10T00:50:39;-5.10;99.90
16578;DHT22;8401;52.528;13.340;2024-01-10T00:53:05;-5.00;99.90
16578;DHT22;8401;52.528;13.340;2024-01-10T00:55:31;-5.10;99.90
16578;DHT22;8401;52.528;13.340;2024-01-10T00:57:56;-5.00;99.90
16578;DHT22;8401;52.528;13.340;2024-01-10T01:00:22;-4.80;99.90
16578;DHT22;8401;52.528;13.340;2024-01-10T01:02:47;-4.80;99.90
16578;DHT22;8401;52.528;13.340;2024-01-10T01:05:13;-4.80;99.90
16578;DHT22;8401;52.528;13.340;2024-01-10T01:07:38;-4.90;99.90
16578;DHT22;8401;52.528;13.340;2024-01-10T01:10:05;-4.70;99.90
16578;DHT22;8401;52.528;13.340;2024-01-10T01:12:31;-4.70;99.90
16578;DHT22;8401;52.528;13.340;2024-01-10T01:14:57;-4.70;99.90
16578;DHT22;8401;52.528;13.340;2024-01-10T01:17:22;-4.50;99.90
16578;DHT22;8401;52.528;13.340;2024-01-10T01:19:48;-4.50;99.90
16578;DHT22;8401;52.528;13.340;2024-01-10T01:22:14;-4.50;99.90
16578;DHT22;8401;52.528;13.340;2024-01-10T01:24:39;-4.40;99.90
16578;DHT22;8401;52.528;13.340;2024-01-10T01:27:05;-4.70;99.90
16578;DHT22;8401;52.528;13.340;2024-01-10T01:29:31;-4.80;99.90
16578;DHT22;8401;52.528;13.340;2024-01-10T01:31:56;-4.70;99.90
16578;DHT22;8401;52.528;13.340;2024-01-10T01:34:22;-4.60;99.90
16578;DHT22;8401;52.528;13.340;2024-01-10T01:36:48;-4.50;99.90
16578;DHT22;8401;52.528;13.340;2024-01-10T01:39:14;-4.50;99.90
16578;DHT22;8401;52.528;13.340;2024-01-10T01:41:40;-4.60;99.90
16578;DHT22;8401;52.528;13.340;2024-01-10T01:44:05;-4.80;99.90
16578;DHT22;8401;52.528;13.340;2024-01-10T01:46:32;-4.80;99.90
16578;DHT22;8401;52.528;13.340;2024-01-10T01:48:58;-5.00;99.90
16578;DHT22;8401;52.528;13.340;2024-01-10T01:51:25;-5.10;99.90
16578;DHT22;8401;52.528;13.340;2024-01-10T01:53:52;-5.10;99.90
16578;DHT22;8401;52.528;13.340;2024-01-10T01:56:19;-5.20;99.90
16578;DHT22;8401;52.528;13.340;2024-01-10T01:58:45;-5.20;99.90
16578;DHT22;8401;52.528;13.340;2024-01-10T02:01:11;-5.10;99.90
16578;DHT22;8401;52.528;13.340;2024-01-10T02:03:37;-5.10;99.90
16578;DHT22;8401;52.528;13.340;2024-01-10T02:06:04;-5.10;99.90
16578;DHT22;8401;52.528;13.340;2024-01-10T02:08:33;-5.00;99.90
16578;DHT22;8401;52.528;13.340;2024-01-10T02:11:00;-5.00;99.90
16578;DHT22;8401;52.528;13.340;2024-01-10T02:13:27;-5.00;99.90
16578;DHT22;8401;52.528;13.340;2024-01-10T02:15:53;-5.00;99.90
16578;DHT22;8401;52.528;13.340;2024-01-10T02:18:19;-4.80;99.90
16578;DHT22;8401;52.528;13.340;2024-01-10T02:20:45;-4.80;99.90
16578;DHT22;8401;52.528;13.340;2024-01-10T02:23:11;-4.80;99.90
16578;DHT22;8401;52.528;13.340;2024-01-10T02:25:38;-4.80;99.90
16578;DHT22;8401;52.528;13.340;2024-01-10T02:28:04;-4.80;99.90
16578;DHT22;8401;52.528;13.340;2024-01-10T02:30:30;-4.70;99.90
16578;DHT22;8401;52.528;13.340;2024-01-10T02:32:55;-4.70;99.90
16578;DHT22;8401;52.528;13.340;2024-01-10T02:35:21;-4.80;99.90
16578;DHT22;8401;52.528;13.340;2024-01-10T02:37:47;-4.90;99.90
16578;DHT22;8401;52.528;13.340;2024-01-10T02:40:15;-5.00;99.90
16578;DHT22;8401;52.528;13.340;2024-01-10T02:42:41;-4.90;99.90
16578;DHT22;8401;52.528;13.340;2024-01-10T02:45:07;-4.90;99.90
16578;DHT22;8401;52.528;13.340;2024-01-10T02:47:33;-4.90;99.90
16578;DHT22;8401;52.528;13.340;2024-01-10T02:49:58;-4.90;99.90
16578;DHT22;8401;52.528;13.340;2024-01-10T02:52:24;-4.80;99.90
16578;DHT22;8401;52.528;13.340;2024-01-10T02:54:50;-4.80;99.90
16578;DHT22;8401;52.528;13.340;2024-01-10T02:57:15;-4.90;99.90
16578;DHT22;8401;52.528;13.340;2024-01-10T02:59:41;-4.90;99.90
16578;DHT22;8401;52.528;13.340;2024-01-10T03:02:06;-5.00;99.90
16578;DHT22;8401;52.528;13.340;2024-01-10T03:04:32;-4.90;99.90
16578;DHT22;8401;52.528;13.340;2024-01-10T03:06:58;-4.80;99.90
16578;DHT22;8401;52.528;13.340;2024-01-10T03:09:23;-4.80;99.90
16578;DHT22;8401;52.528;13.340;2024-01-10T03:11:49;-4.80;99.90
16578;DHT22;8401;52.528;13.340;2024-01-10T03:14:15;-5.00;99.90
16578;DHT22;8401;52.528;13.340;2024-01-10T03:16:40;-5.10;99.90
16578;DHT22;8401;52.528;13.340;2024-01-10T03:19:06;-5.10;99.90
16578;DHT22;8401;52.528;13.340;2024-01-10T03:21:31;-5.20;99.90
16578;DHT22;8401;52.528;13.340;2024-01-10T03:23:58;-5.20;99.90
16578;DHT22;8401;52.528;13.340;2024-01-10T03:26:25;-5.10;99.90
16578;DHT22;8401;52.528;13.340;2024-01-10T03:28:51;-5.10;99.90
16578;DHT22;8401;52.528;13.340;2024-01-10T03:31:17;-5.10;99.90
16578;DHT22;8401;52.528;13.340;2024-01-10T03:33:42;-5.10;99.90
16578;DHT22;8401;52.528;13.340;2024-01-10T03:36:11;-5.10;99.90
16578;DHT22;8401;52.528;13.340;2024-01-10T03:38:37;-5.10;99.90
16578;DHT22;8401;52.528;13.340;2024-01-10T03:41:03;-5.10;99.90
16578;DHT22;8401;52.528;13.340;2024-01-10T03:43:28;-5.20;99.90
16578;DHT22;8401;52.528;13.340;2024-01-10T03:45:54;-5.10;99.90
16578;DHT22;8401;52.528;13.340;2024-01-10T03:48:20;-5.20;99.90
16578;DHT22;8401;52.528;13.340;2024-01-10T03:50:46;-5.10;99.90
16578;DHT22;8401;52.528;13.340;2024-01-10T03:53:11;-5.20;99.90
16578;DHT22;8401;52.528;13.340;2024-01-10T03:55:37;-5.10;99.90
16578;DHT22;8401;52.528;13.340;2024-01-10T03:58:03;-5.10;99.90
16578;DHT22;8401;52.528;13.340;2024-01-10T04:00:29;-5.20;99.90
16578;DHT22;8401;52.528;13.340;2024-01-10T04:02:54;-5.20;99.90
16578;DHT22;8401;52.528;13.340;2024-01-10T04:05:20;-5.30;99.90
16578;DHT22;8401;52.528;13.340;2024-01-10T04:07:46;-5.20;99.90
16578;DHT22;8401;52.528;13.340;2024-01-10T04:10:13;-5.10;99.90
16578;DHT22;8401;52.528;13.340;2024-01-10T04:12:43;-5.20;99.90
16578;DHT22;8401;52.528;13.340;2024-01-10T04:15:09;-5.20;99.90
16578;DHT22;8401;52.528;13.340;2024-01-10T04:17:35;-5.30;99.90
16578;DHT22;8401;52.528;13.340;2024-01-10T04:20:01;-5.40;99.90
16578;DHT22;8401;52.528;13.340;2024-01-10T04:22:27;-5.40;99.90
16578;DHT22;8401;52.528;13.340;2024-01-10T04:24:53;-5.40;99.90
16578;DHT22;8401;52.528;13.340;2024-01-10T04:27:18;-5.10;99.90
16578;DHT22;8401;52.528;13.340;2024-01-10T04:29:44;-5.00;99.90
16578;DHT22;8401;52.528;13.340;2024-01-10T04:32:10;-5.20;99.90
16578;DHT22;8401;52.528;13.340;2024-01-10T04:34:36;-5.10;99.90
16578;DHT22;8401;52.528;13.340;2024-01-10T04:37:01;-5.10;99.90
16578;DHT22;8401;52.528;13.340;2024-01-10T04:39:27;-5.10;99.90
16578;DHT22;8401;52.528;13.340;2024-01-10T04:41:53;-5.10;99.90
16578;DHT22;8401;52.528;13.340;2024-01-10T04:44:19;-5.00;99.90
16578;DHT22;8401;52.528;13.340;2024-01-10T04:46:44;-4.90;99.90
16578;DHT22;8401;52.528;13.340;2024-01-10T04:49:10;-5.00;99.90
16578;DHT22;8401;52.528;13.340;2024-01-10T04:51:36;-5.00;99.90
16578;DHT22;8401;52.528;13.340;2024-01-10T04:54:01;-5.00;99.90
16578;DHT22;8401;52.528;13.340;2024-01-10T04:56:27;-4.80;99.90
16578;DHT22;8401;52.528;13.340;2024-01-10T04:58:52;-4.70;99.90
16578;DHT22;8401;52.528;13.340;2024-01-10T05:01:18;-4.70;99.90
16578;DHT22;8401;52.528;13.340;2024-01-10T05:03:44;-4.80;99.90
16578;DHT22;8401;52.528;13.340;2024-01-10T05:06:11;-5.00;99.90
16578;DHT22;8401;52.528;13.340;2024-01-10T05:08:36;-5.00;99.90
16578;DHT22;8401;52.528;13.340;2024-01-10T05:11:02;-5.00;99.90
16578;DHT22;8401;52.528;13.340;2024-01-10T05:13:28;-5.10;99.90
16578;DHT22;8401;52.528;13.340;2024-01-10T05:15:54;-5.20;99.90
16578;DHT22;8401;52.528;13.340;2024-01-10T05:18:21;-5.10;99.90
16578;DHT22;8401;52.528;13.340;2024-01-10T05:20:46;-5.20;99.90
16578;DHT22;8401;52.528;13.340;2024-01-10T05:23:13;-5.10;99.90
16578;DHT22;8401;52.528;13.340;2024-01-10T05:25:39;-5.00;99.90
16578;DHT22;8401;52.528;13.340;2024-01-10T05:28:05;-5.00;99.90
16578;DHT22;8401;52.528;13.340;2024-01-10T05:30:30;-5.10;99.90
16578;DHT22;8401;52.528;13.340;2024-01-10T05:32:57;-5.20;99.90
16578;DHT22;8401;52.528;13.340;2024-01-10T05:35:24;-5.20;99.90
16578;DHT22;8401;52.528;13.340;2024-01-10T05:37:54;-5.10;99.90
16578;DHT22;8401;52.528;13.340;2024-01-10T05:40:20;-5.20;99.90
16578;DHT22;8401;52.528;13.340;2024-01-10T05:42:46;-5.20;99.90
16578;DHT22;8401;52.528;13.340;2024-01-10T05:45:11;-5.20;99.90
16578;DHT22;8401;52.528;13.340;2024-01-10T05:47:37;-5.20;99.90
16578;DHT22;8401;52.528;13.340;2024-01-10T05:50:03;-5.00;99.90
16578;DHT22;8401;52.528;13.340;2024-01-10T05:52:32;-4.80;99.90
16578;DHT22;8401;52.528;13.340;2024-01-10T05:54:59;-4.60;99.90
16578;DHT22;8401;52.528;13.340;2024-01-10T05:57:24;-4.70;99.90
16578;DHT22;8401;52.528;13.340;2024-01-10T05:59:50;-4.70;99.90
16578;DHT22;8401;52.528;13.340;2024-01-10T06:02:18;-4.50;99.90
16578;DHT22;8401;52.528;13.340;2024-01-10T06:04:43;-4.60;99.90
16578;DHT22;8401;52.528;13.340;2024-01-10T06:07:09;-4.50;99.90
16578;DHT22;8401;52.528;13.340;2024-01-10T06:09:34;-4.70;99.90
16578;DHT22;8401;52.528;13.340;2024-01-10T06:12:00;-4.80;99.90
16578;DHT22;8401;52.528;13.340;2024-01-10T06:14:26;-4.90;99.90
16578;DHT22;8401;52.528;13.340;2024-01-10T06:16:51;-4.80;99.90
16578;DHT22;8401;52.528;13.340;2024-01-10T06:19:17;-5.00;99.90
16578;DHT22;8401;52.528;13.340;2024-01-10T06:21:43;-4.90;99.90
16578;DHT22;8401;52.528;13.340;2024-01-10T06:24:09;-4.90;99.90
16578;DHT22;8401;52.528;13.340;2024-01-10T06:26:35;-5.00;99.90
16578;DHT22;8401;52.528;13.340;2024-01-10T06:29:00;-5.00;99.90
16578;DHT22;8401;52.528;13.340;2024-01-10T06:31:26;-5.00;99.90
16578;DHT22;8401;52.528;13.340;2024-01-10T06:33:51;-5.10;99.90
16578;DHT22;8401;52.528;13.340;2024-01-10T06:36:17;-5.20;99.90
16578;DHT22;8401;52.528;13.340;2024-01-10T06:38:43;-4.90;99.90
16578;DHT22;8401;52.528;13.340;2024-01-10T06:41:09;-4.90;99.90
16578;DHT22;8401;52.528;13.340;2024-01-10T06:43:36;-4.80;99.90
16578;DHT22;8401;52.528;13.340;2024-01-10T06:46:02;-4.90;99.90
16578;DHT22;8401;52.528;13.340;2024-01-10T06:48:28;-4.80;99.90
16578;DHT22;8401;52.528;13.340;2024-01-10T06:50:54;-4.70;99.90
16578;DHT22;8401;52.528;13.340;2024-01-10T06:53:21;-4.70;99.90
16578;DHT22;8401;52.528;13.340;2024-01-10T06:55:46;-4.70;99.90
16578;DHT22;8401;52.528;13.340;2024-01-10T06:58:12;-4.80;99.90
16578;DHT22;8401;52.528;13.340;2024-01-10T07:00:38;-4.90;99.90
16578;DHT22;8401;52.528;13.340;2024-01-10T07:03:04;-5.00;99.90
16578;DHT22;8401;52.528;13.340;2024-01-10T07:05:29;-5.00;99.90
16578;DHT22;8401;52.528;13.340;2024-01-10T07:07:57;-5.00;99.90
16578;DHT22;8401;52.528;13.340;2024-01-10T07:10:23;-5.00;99.90
16578;DHT22;8401;52.528;13.340;2024-01-10T07:12:53;-5.00;99.90
16578;DHT22;8401;52.528;13.340;2024-01-10T07:15:19;-4.90;99.90
16578;DHT22;8401;52.528;13.340;2024-01-10T07:17:45;-4.80;99.90
16578;DHT22;8401;52.528;13.340;2024-01-10T07:20:10;-4.80;99.90
16578;DHT22;8401;52.528;13.340;2024-01-10T07:22:38;-4.60;99.90
16578;DHT22;8401;52.528;13.340;2024-01-10T07:25:07;-4.70;99.90
16578;DHT22;8401;52.528;13.340;2024-01-10T07:27:34;-4.50;99.90
16578;DHT22;8401;52.528;13.340;2024-01-10T07:30:00;-4.70;99.90
16578;DHT22;8401;52.528;13.340;2024-01-10T07:32:25;-4.70;99.90
16578;DHT22;8401;52.528;13.340;2024-01-10T07:34:51;-4.40;99.90
16578;DHT22;8401;52.528;13.340;2024-01-10T07:37:16;-4.50;99.90
16578;DHT22;8401;52.528;13.340;2024-01-10T07:39:46;-4.60;99.90
16578;DHT22;8401;52.528;13.340;2024-01-10T07:42:12;-4.70;99.90
16578;DHT22;8401;52.528;13.340;2024-01-10T07:44:37;-4.80;99.90
16578;DHT22;8401;52.528;13.340;2024-01-10T07:47:03;-4.60;99.90
16578;DHT22;8401;52.528;13.340;2024-01-10T07:49:29;-4.60;99.90
16578;DHT22;8401;52.528;13.340;2024-01-10T07:51:55;-4.40;99.90
16578;DHT22;8401;52.528;13.340;2024-01-10T07:54:21;-4.40;99.90
16578;DHT22;8401;52.528;13.340;2024-01-10T07:56:48;-4.30;99.90
16578;DHT22;8401;52.528;13.340;2024-01-10T07:59:13;-4.40;99.90
16578;DHT22;8401;52.528;13.340;2024-01-10T08:01:43;-4.50;99.90
16578;DHT22;8401;52.528;13.340;2024-01-10T08:04:10;-4.60;99.90
16578;DHT22;8401;52.528;13.340;2024-01-10T08:06:35;-4.70;99.90
16578;DHT22;8401;52.528;13.340;2024-01-10T08:09:01;-4.70;99.90
16578;DHT22;8401;52.528;13.340;2024-01-10T08:11:29;-4.60;99.90
16578;DHT22;8401;52.528;13.340;2024-01-10T08:13:55;-4.60;99.90
16578;DHT22;8401;52.528;13.340;2024-01-10T08:16:21;-4.60;99.90
16578;DHT22;8401;52.528;13.340;2024-01-10T08:18:46;-4.40;99.90
16578;DHT22;8401;52.528;13.340;2024-01-10T08:21:12;-4.20;99.90
16578;DHT22;8401;52.528;13.340;2024-01-10T08:23:37;-4.00;99.90
16578;DHT22;8401;52.528;13.340;2024-01-10T08:26:06;-3.90;99.90
16578;DHT22;8401;52.528;13.340;2024-01-10T08:28:33;-4.00;99.90
16578;DHT22;8401;52.528;13.340;2024-01-10T08:30:59;-4.20;99.90
16578;DHT22;8401;52.528;13.340;2024-01-10T08:33:24;-4.20;99.90
16578;DHT22;8401;52.528;13.340;2024-01-10T08:35:50;-4.00;99.90
16578;DHT22;8401;52.528;13.340;2024-01-10T08:38:16;-3.90;99.90
16578;DHT22;8401;52.528;13.340;2024-01-10T08:40:41;-4.10;99.90
16578;DHT22;8401;52.528;13.340;2024-01-10T08:43:07;-3.90;99.90
16578;DHT22;8401;52.528;13.340;2024-01-10T08:45:33;-3.90;99.90
16578;DHT22;8401;52.528;13.340;2024-01-10T08:47:58;-3.70;99.90
16578;DHT22;8401;52.528;13.340;2024-01-10T08:50:24;-3.70;99.90
16578;DHT22;8401;52.528;13.340;2024-01-10T08:52:50;-3.80;99.90
16578;DHT22;8401;52.528;13.340;2024-01-10T08:55:16;-3.70;99.90
16578;DHT22;8401;52.528;13.340;2024-01-10T08:57:41;-3.80;99.90
16578;DHT22;8401;52.528;13.340;2024-01-10T09:00:07;-3.60;99.90
16578;DHT22;8401;52.528;13.340;2024-01-10T09:02:37;-3.70;99.90
16578;DHT22;8401;52.528;13.340;2024-01-10T09:05:03;-3.80;99.90
16578;DHT22;8401;52.528;13.340;2024-01-10T09:07:32;-3.70;99.90
16578;DHT22;8401;52.528;13.340;2024-01-10T09:09:58;-3.40;99.90
16578;DHT22;8401;52.528;13.340;2024-01-10T09:12:23;-3.60;99.90
16578;DHT22;8401;52.528;13.340;2024-01-10T09:14:49;-3.60;99.90
16578;DHT22;8401;52.528;13.340;2024-01-10T09:17:15;-3.50;99.90
16578;DHT22;8401;52.528;13.340;2024-01-10T09:19:40;-3.60;99.90
16578;DHT22;8401;52.528;13.340;2024-01-10T09:22:06;-3.40;99.90
16578;DHT22;8401;52.528;13.340;2024-01-10T09:24:32;-3.20;99.90
16578;DHT22;8401;52.528;13.340;2024-01-10T09:26:57;-3.00;99.90
16578;DHT22;8401;52.528;13.340;2024-01-10T09:29:24;-3.20;99.90
16578;DHT22;8401;52.528;13.340;2024-01-10T09:31:51;-3.30;99.90
16578;DHT22;8401;52.528;13.340;2024-01-10T09:34:16;-3.30;99.90
16578;DHT22;8401;52.528;13.340;2024-01-10T09:36:42;-3.30;99.90
16578;DHT22;8401;52.528;13.340;2024-01-10T09:39:08;-3.30;99.90
16578;DHT22;8401;52.528;13.340;2024-01-10T09:41:43;-3.00;99.90
16578;DHT22;8401;52.528;13.340;2024-01-10T09:44:10;-2.90;99.90
16578;DHT22;8401;52.528;13.340;2024-01-10T09:46:38;-2.80;99.90
16578;DHT22;8401;52.528;13.340;2024-01-10T09:49:06;-2.90;99.90
16578;DHT22;8401;52.528;13.340;2024-01-10T09:51:33;-2.80;99.90
16578;DHT22;8401;52.528;13.340;2024-01-10T09:54:02;-2.80;99.90
16578;DHT22;8401;52.528;13.340;2024-01-10T09:56:28;-2.80;99.90
16578;DHT22;8401;52.528;13.340;2024-01-10T09:58:55;-2.50;99.90
16578;DHT22;8401;52.528;13.340;2024-01-10T10:01:23;-2.60;99.90
16578;DHT22;8401;52.528;13.340;2024-01-10T10:03:50;-2.70;99.90
16578;DHT22;8401;52.528;13.340;2024-01-10T10:06:16;-2.50;99.90
16578;DHT22;8401;52.528;13.340;2024-01-10T10:08:41;-2.50;99.90
16578;DHT22;8401;52.528;13.340;2024-01-10T10:11:12;-2.40;99.90
16578;DHT22;8401;52.528;13.340;2024-01-10T10:13:39;-2.20;99.90
16578;DHT22;8401;52.528;13.340;2024-01-10T10:16:07;-2.10;99.90
16578;DHT22;8401;52.528;13.340;2024-01-10T10:18:35;-1.90;99.90
16578;DHT22;8401;52.528;13.340;2024-01-10T10:23:34;-2.10;99.90
16578;DHT22;8401;52.528;13.340;2024-01-10T10:26:13;-2.10;99.90
16578;DHT22;8401;52.528;13.340;2024-01-10T10:28:44;-2.00;99.90
16578;DHT22;8401;52.528;13.340;2024-01-10T10:31:10;-1.90;99.90
16578;DHT22;8401;52.528;13.340;2024-01-10T10:33:37;-1.70;99.90
16578;DHT22;8401;52.528;13.340;2024-01-10T10:36:03;-2.10;99.90
16578;DHT22;8401;52.528;13.340;2024-01-10T10:38:29;-2.10;99.90
16578;DHT22;8401;52.528;13.340;2024-01-10T10:40:55;-1.80;99.90
16578;DHT22;8401;52.528;13.340;2024-01-10T10:43:21;-1.90;99.90
16578;DHT22;8401;52.528;13.340;2024-01-10T10:45:48;-1.60;99.90
16578;DHT22;8401;52.528;13.340;2024-01-10T10:48:18;-1.70;99.90
16578;DHT22;8401;52.528;13.340;2024-01-10T10:50:59;-1.90;99.90
16578;DHT22;8401;52.528;13.340;2024-01-10T10:53:25;-2.00;99.90
16578;DHT22;8401;52.528;13.340;2024-01-10T10:55:53;-1.70;99.90
16578;DHT22;8401;52.528;13.340;2024-01-10T10:58:21;-1.40;99.90
16578;DHT22;8401;52.528;13.340;2024-01-10T11:00:47;-1.10;99.90
16578;DHT22;8401;52.528;13.340;2024-01-10T11:03:13;-1.00;99.90
16578;DHT22;8401;52.528;13.340;2024-01-10T11:05:41;-0.90;99.90
16578;DHT22;8401;52.528;13.340;2024-01-10T11:08:12;-1.00;99.90
16578;DHT22;8401;52.528;13.340;2024-01-10T11:10:40;-1.10;99.90
16578;DHT22;8401;52.528;13.340;2024-01-10T11:15:59;-1.10;99.90
16578;DHT22;8401;52.528;13.340;2024-01-10T11:24:19;-1.20;99.90
16578;DHT22;8401;52.528;13.340;2024-01-10T11:26:45;-1.20;99.90
16578;DHT22;8401;52.528;13.340;2024-01-10T11:29:11;-1.20;99.90
16578;DHT22;8401;52.528;13.340;2024-01-10T11:31:38;-1.20;99.90
16578;DHT22;8401;52.528;13.340;2024-01-10T11:34:04;-1.10;99.90
16578;DHT22;8401;52.528;13.340;2024-01-10T11:36:30;-1.10;99.90
16578;DHT22;8401;52.528;13.340;2024-01-10T11:39:03;-1.10;99.90
16578;DHT22;8401;52.528;13.340;2024-01-10T11:41:35;-0.90;99.90
16578;DHT22;8401;52.528;13.340;2024-01-10T11:46:38;-0.70;99.90
16578;DHT22;8401;52.528;13.340;2024-01-10T11:49:06;-0.90;99.90
16578;DHT22;8401;52.528;13.340;2024-01-10T11:51:32;-1.00;99.90
16578;DHT22;8401;52.528;13.340;2024-01-10T11:53:58;-0.80;99.90
16578;DHT22;8401;52.528;13.340;2024-01-10T11:56:41;-0.60;99.90
16578;DHT22;8401;52.528;13.340;2024-01-10T12:01:41;-0.70;99.90
16578;DHT22;8401;52.528;13.340;2024-01-10T12:04:07;-0.40;99.90
16578;DHT22;8401;52.528;13.340;2024-01-10T12:06:35;-0.50;99.90
16578;DHT22;8401;52.528;13.340;2024-01-10T12:09:02;-0.50;99.90
16578;DHT22;8401;52.528;13.340;2024-01-10T12:11:34;-0.30;99.90
16578;DHT22;8401;52.528;13.340;2024-01-10T12:14:00;-0.30;99.90
16578;DHT22;8401;52.528;13.340;2024-01-10T12:16:26;0.00;99.90
16578;DHT22;8401;52.528;13.340;2024-01-10T12:18:52;0.10;99.90
16578;DHT22;8401;52.528;13.340;2024-01-10T12:21:18;-0.10;99.90
16578;DHT22;8401;52.528;13.340;2024-01-10T12:23:43;-0.20;99.90
16578;DHT22;8401;52.528;13.340;2024-01-10T12:26:10;-0.10;99.90
16578;DHT22;8401;52.528;13.340;2024-01-10T12:28:39;0.00;99.90
16578;DHT22;8401;52.528;13.340;2024-01-10T12:31:06;-0.20;99.90
16578;DHT22;8401;52.528;13.340;2024-01-10T12:33:37;-0.20;99.90
16578;DHT22;8401;52.528;13.340;2024-01-10T12:36:09;-0.30;99.90
16578;DHT22;8401;52.528;13.340;2024-01-10T12:38:36;-0.20;99.90
16578;DHT22;8401;52.528;13.340;2024-01-10T12:41:03;-0.30;99.90
16578;DHT22;8401;52.528;13.340;2024-01-10T12:43:29;-0.30;99.90
16578;DHT22;8401;52.528;13.340;2024-01-10T12:46:09;-0.30;99.90
16578;DHT22;8401;52.528;13.340;2024-01-10T12:48:41;-0.30;99.90
16578;DHT22;8401;52.528;13.340;2024-01-10T12:51:11;-0.40;99.90
16578;DHT22;8401;52.528;13.340;2024-01-10T12:53:42;-0.40;99.90
16578;DHT22;8401;52.528;13.340;2024-01-10T12:56:09;-0.30;99.90
16578;DHT22;8401;52.528;13.340;2024-01-10T12:58:39;-0.20;99.90
16578;DHT22;8401;52.528;13.340;2024-01-10T13:01:05;-0.30;99.90
16578;DHT22;8401;52.528;13.340;2024-01-10T13:03:31;-0.10;99.90
16578;DHT22;8401;52.528;13.340;2024-01-10T13:05:57;-0.10;99.90
16578;DHT22;8401;52.528;13.340;2024-01-10T13:08:23;-0.20;99.90
16578;DHT22;8401;52.528;13.340;2024-01-10T13:10:49;-0.10;99.90
16578;DHT22;8401;52.528;13.340;2024-01-10T13:13:15;-0.20;99.90
16578;DHT22;8401;52.528;13.340;2024-01-10T13:15:43;-0.20;99.90
16578;DHT22;8401;52.528;13.340;2024-01-10T13:18:08;-0.20;99.90
16578;DHT22;8401;52.528;13.340;2024-01-10T13:20:37;-0.30;99.90
16578;DHT22;8401;52.528;13.340;2024-01-10T13:23:06;-0.20;99.90
16578;DHT22;8401;52.528;13.340;2024-01-10T13:25:33;-0.20;99.90
16578;DHT22;8401;52.528;13.340;2024-01-10T13:27:59;0.00;99.90
16578;DHT22;8401;52.528;13.340;2024-01-10T13:30:26;-0.10;99.90
16578;DHT22;8401;52.528;13.340;2024-01-10T13:32:52;0.10;99.90
16578;DHT22;8401;52.528;13.340;2024-01-10T13:35:17;0.00;99.90
16578;DHT22;8401;52.528;13.340;2024-01-10T13:37:43;0.00;99.90
16578;DHT22;8401;52.528;13.340;2024-01-10T13:40:09;0.00;99.90
16578;DHT22;8401;52.528;13.340;2024-01-10T13:42:41;0.00;99.90
16578;DHT22;8401;52.528;13.340;2024-01-10T13:45:08;-0.10;99.90
16578;DHT22;8401;52.528;13.340;2024-01-10T13:47:37;-0.20;99.90
16578;DHT22;8401;52.528;13.340;2024-01-10T13:50:07;-0.20;99.90
16578;DHT22;8401;52.528;13.340;2024-01-10T13:52:33;-0.30;99.90
16578;DHT22;8401;52.528;13.340;2024-01-10T13:55:02;-0.30;99.90
16578;DHT22;8401;52.528;13.340;2024-01-10T13:57:32;-0.10;99.90
16578;DHT22;8401;52.528;13.340;2024-01-10T13:59:58;-0.30;99.90
16578;DHT22;8401;52.528;13.340;2024-01-10T14:02:24;-0.20;99.90
16578;DHT22;8401;52.528;13.340;2024-01-10T14:04:50;0.10;99.90
16578;DHT22;8401;52.528;13.340;2024-01-10T14:07:16;0.10;99.90
16578;DHT22;8401;52.528;13.340;2024-01-10T14:09:42;0.00;99.90
16578;DHT22;8401;52.528;13.340;2024-01-10T14:12:08;-0.10;99.90
16578;DHT22;8401;52.528;13.340;2024-01-10T14:14:34;-0.20;99.90
16578;DHT22;8401;52.528;13.340;2024-01-10T14:16:59;-0.30;99.90
16578;DHT22;8401;52.528;13.340;2024-01-10T14:19:25;-0.40;99.90
16578;DHT22;8401;52.528;13.340;2024-01-10T14:21:51;-0.20;99.90
16578;DHT22;8401;52.528;13.340;2024-01-10T14:24:17;-0.20;99.90
16578;DHT22;8401;52.528;13.340;2024-01-10T14:26:43;-0.30;99.90
16578;DHT22;8401;52.528;13.340;2024-01-10T14:29:09;-0.20;99.90
16578;DHT22;8401;52.528;13.340;2024-01-10T14:31:35;-0.20;99.90
16578;DHT22;8401;52.528;13.340;2024-01-10T14:34:00;-0.20;99.90
16578;DHT22;8401;52.528;13.340;2024-01-10T14:36:26;-0.20;99.90
16578;DHT22;8401;52.528;13.340;2024-01-10T14:38:51;-0.30;99.90
16578;DHT22;8401;52.528;13.340;2024-01-10T14:41:17;-0.30;99.90
16578;DHT22;8401;52.528;13.340;2024-01-10T14:43:43;-0.30;99.90
16578;DHT22;8401;52.528;13.340;2024-01-10T14:46:09;-0.40;99.90
16578;DHT22;8401;52.528;13.340;2024-01-10T14:48:35;-0.40;99.90
16578;DHT22;8401;52.528;13.340;2024-01-10T14:51:02;-0.50;99.90
16578;DHT22;8401;52.528;13.340;2024-01-10T14:53:27;-0.60;99.90
16578;DHT22;8401;52.528;13.340;2024-01-10T14:55:53;-0.70;99.90
16578;DHT22;8401;52.528;13.340;2024-01-10T14:58:19;-0.70;99.90
16578;DHT22;8401;52.528;13.340;2024-01-10T15:00:45;-0.80;99.90
16578;DHT22;8401;52.528;13.340;2024-01-10T15:03:11;-0.90;99.90
16578;DHT22;8401;52.528;13.340;2024-01-10T15:05:38;-0.80;99.90
16578;DHT22;8401;52.528;13.340;2024-01-10T15:08:04;-0.90;99.90
16578;DHT22;8401;52.528;13.340;2024-01-10T15:10:36;-1.00;99.90
16578;DHT22;8401;52.528;13.340;2024-01-10T15:13:02;-1.00;99.90
16578;DHT22;8401;52.528;13.340;2024-01-10T15:15:29;-1.00;99.90
16578;DHT22;8401;52.528;13.340;2024-01-10T15:17:55;-1.10;99.90
16578;DHT22;8401;52.528;13.340;2024-01-10T15:20:20;-1.10;99.90
16578;DHT22;8401;52.528;13.340;2024-01-10T15:22:47;-1.20;99.90
16578;DHT22;8401;52.528;13.340;2024-01-10T15:25:13;-1.20;99.90
16578;DHT22;8401;52.528;13.340;2024-01-10T15:27:38;-1.30;99.90
16578;DHT22;8401;52.528;13.340;2024-01-10T15:30:04;-1.30;99.90
16578;DHT22;8401;52.528;13.340;2024-01-10T15:32:31;-1.30;99.90
16578;DHT22;8401;52.528;13.340;2024-01-10T15:34:56;-1.40;99.90
16578;DHT22;8401;52.528;13.340;2024-01-10T15:37:23;-1.30;99.90
16578;DHT22;8401;52.528;13.340;2024-01-10T15:39:49;-1.30;99.90
16578;DHT22;8401;52.528;13.340;2024-01-10T15:42:14;-1.40;99.90
16578;DHT22;8401;52.528;13.340;2024-01-10T15:44:42;-1.40;99.90